sensor_id;sensor_type;location;lat;lon;timestamp;P1;P2;P0
55276;PMS5003;41136;51.478;-2.610;2023-06-22T00:01:41;11;9;
55276;PMS5003;41136;51.478;-2.610;2023-06-22T00:04:07;9;9;
55276;PMS5003;41136;51.478;-2.610;2023-06-22T00:06:32;8;8;
55276;PMS5003;41136;51.478;-2.610;2023-06-22T00:08:57;7;7;
55276;PMS5003;41136;51.478;-2.610;2023-06-22T00:11:22;7;7;
55276;PMS5003;41136;51.478;-2.610;2023-06-22T00:13:48;11;9;
55276;PMS5003;41136;51.478;-2.610;2023-06-22T00:16:14;9;8;
55276;PMS5003;41136;51.478;-2.610;2023-06-22T00:18:39;7;7;
55276;PMS5003;41136;51.478;-2.610;2023-06-22T00:21:04;7;7;
55276;PMS5003;41136;51.478;-2.610;2023-06-22T00:23:29;10;9;
55276;PMS5003;41136;51.478;-2.610;2023-06-22T00:25:55;12;10;
55276;PMS5003;41136;51.478;-2.610;2023-06-22T00:28:20;10;9;
55276;PMS5003;41136;51.478;-2.610;2023-06-22T00:30:45;9;9;
55276;PMS5003;41136;51.478;-2.610;2023-06-22T00:33:11;10;9;
55276;PMS5003;41136;51.478;-2.610;2023-06-22T00:35:36;15;11;
55276;PMS5003;41136;51.478;-2.610;2023-06-22T00:38:01;11;11;
55276;PMS5003;41136;51.478;-2.610;2023-06-22T00:40:26;11;11;
55276;PMS5003;41136;51.478;-2.610;2023-06-22T00:42:53;11;9;
55276;PMS5003;41136;51.478;-2.610;2023-06-22T00:45:18;12;11;
55276;PMS5003;41136;51.478;-2.610;2023-06-22T00:47:43;15;14;
55276;PMS5003;41136;51.478;-2.610;2023-06-22T00:50:08;16;12;
55276;PMS5003;41136;51.478;-2.610;2023-06-22T00:52:33;12;11;
55276;PMS5003;41136;51.478;-2.610;2023-06-22T00:54:58;14;13;
55276;PMS5003;41136;51.478;-2.610;2023-06-22T00:57:24;14;12;
55276;PMS5003;41136;51.478;-2.610;2023-06-22T00:59:50;12;11;
55276;PMS5003;41136;51.478;-2.610;2023-06-22T01:02:15;15;11;
55276;PMS5003;41136;51.478;-2.610;2023-06-22T01:04:40;16;14;
55276;PMS5003;41136;51.478;-2.610;2023-06-22T01:07:09;12;11;
55276;PMS5003;41136;51.478;-2.610;2023-06-22T01:09:32;11;10;
55276;PMS5003;41136;51.478;-2.610;2023-06-22T01:11:58;17;15;
55276;PMS5003;41136;51.478;-2.610;2023-06-22T01:14:23;12;12;
55276;PMS5003;41136;51.478;-2.610;2023-06-22T01:16:47;16;13;
55276;PMS5003;41136;51.478;-2.610;2023-06-22T01:19:18;17;13;
55276;PMS5003;41136;51.478;-2.610;2023-06-22T01:21:38;16;16;
55276;PMS5003;41136;51.478;-2.610;2023-06-22T01:24:09;16;13;
55276;PMS5003;41136;51.478;-2.610;2023-06-22T01:28:10;18;14;
55276;PMS5003;41136;51.478;-2.610;2023-06-22T01:30:32;14;14;
55276;PMS5003;41136;51.478;-2.610;2023-06-22T01:33:00;19;16;
55276;PMS5003;41136;51.478;-2.610;2023-06-22T01:38:23;14;12;
55276;PMS5003;41136;51.478;-2.610;2023-06-22T01:40:49;22;17;
55276;PMS5003;41136;51.478;-2.610;2023-06-22T01:43:15;14;14;
55276;PMS5003;41136;51.478;-2.610;2023-06-22T01:45:40;15;15;
55276;PMS5003;41136;51.478;-2.610;2023-06-22T01:48:05;25;17;
55276;PMS5003;41136;51.478;-2.610;2023-06-22T01:50:30;19;15;
55276;PMS5003;41136;51.478;-2.610;2023-06-22T01:52:56;14;14;
55276;PMS5003;41136;51.478;-2.610;2023-06-22T01:55:21;14;13;
55276;PMS5003;41136;51.478;-2.610;2023-06-22T01:57:46;16;13;
55276;PMS5003;41136;51.478;-2.610;2023-06-22T02:00:12;21;16;
55276;PMS5003;41136;51.478;-2.610;2023-06-22T02:02:39;22;18;
55276;PMS5003;41136;51.478;-2.610;2023-06-22T02:05:02;14;13;
55276;PMS5003;41136;51.478;-2.610;2023-06-22T02:07:28;18;15;
55276;PMS5003;41136;51.478;-2.610;2023-06-22T02:09:53;21;19;
55276;PMS5003;41136;51.478;-2.610;2023-06-22T02:12:18;17;16;
55276;PMS5003;41136;51.478;-2.610;2023-06-22T02:14:44;18;17;
55276;PMS5003;41136;51.478;-2.610;2023-06-22T02:17:09;20;19;
55276;PMS5003;41136;51.478;-2.610;2023-06-22T02:19:36;15;14;
55276;PMS5003;41136;51.478;-2.610;2023-06-22T02:22:01;16;14;
55276;PMS5003;41136;51.478;-2.610;2023-06-22T02:24:26;16;16;
55276;PMS5003;41136;51.478;-2.610;2023-06-22T02:26:51;18;14;
55276;PMS5003;41136;51.478;-2.610;2023-06-22T02:29:17;20;15;
55276;PMS5003;41136;51.478;-2.610;2023-06-22T02:31:42;21;18;
55276;PMS5003;41136;51.478;-2.610;2023-06-22T02:34:08;19;16;
55276;PMS5003;41136;51.478;-2.610;2023-06-22T02:36:34;22;14;
55276;PMS5003;41136;51.478;-2.610;2023-06-22T02:39:00;16;15;
55276;PMS5003;41136;51.478;-2.610;2023-06-22T02:41:25;14;14;
55276;PMS5003;41136;51.478;-2.610;2023-06-22T02:43:51;16;14;
55276;PMS5003;41136;51.478;-2.610;2023-06-22T02:46:16;15;14;
55276;PMS5003;41136;51.478;-2.610;2023-06-22T02:48:41;16;13;
55276;PMS5003;41136;51.478;-2.610;2023-06-22T02:51:07;13;12;
55276;PMS5003;41136;51.478;-2.610;2023-06-22T02:53:32;16;15;
55276;PMS5003;41136;51.478;-2.610;2023-06-22T02:55:58;14;14;
55276;PMS5003;41136;51.478;-2.610;2023-06-22T02:58:23;18;14;
55276;PMS5003;41136;51.478;-2.610;2023-06-22T03:00:48;16;16;
55276;PMS5003;41136;51.478;-2.610;2023-06-22T03:03:14;17;15;
55276;PMS5003;41136;51.478;-2.610;2023-06-22T03:05:39;16;13;
55276;PMS5003;41136;51.478;-2.610;2023-06-22T03:08:04;22;17;
55276;PMS5003;41136;51.478;-2.610;2023-06-22T03:10:29;19;12;
55276;PMS5003;41136;51.478;-2.610;2023-06-22T03:12:55;12;12;
55276;PMS5003;41136;51.478;-2.610;2023-06-22T03:15:21;15;13;
55276;PMS5003;41136;51.478;-2.610;2023-06-22T03:17:47;21;15;
55276;PMS5003;41136;51.478;-2.610;2023-06-22T03:20:11;16;14;
55276;PMS5003;41136;51.478;-2.610;2023-06-22T03:22:37;21;17;
55276;PMS5003;41136;51.478;-2.610;2023-06-22T03:25:02;17;15;
55276;PMS5003;41136;51.478;-2.610;2023-06-22T03:27:27;15;13;
55276;PMS5003;41136;51.478;-2.610;2023-06-22T03:29:52;22;15;
55276;PMS5003;41136;51.478;-2.610;2023-06-22T03:32:18;15;12;
55276;PMS5003;41136;51.478;-2.610;2023-06-22T03:34:45;15;11;
55276;PMS5003;41136;51.478;-2.610;2023-06-22T03:37:10;14;13;
55276;PMS5003;41136;51.478;-2.610;2023-06-22T03:39:36;15;15;
55276;PMS5003;41136;51.478;-2.610;2023-06-22T03:42:02;16;14;
55276;PMS5003;41136;51.478;-2.610;2023-06-22T03:44:27;14;14;
55276;PMS5003;41136;51.478;-2.610;2023-06-22T03:46:52;18;16;
55276;PMS5003;41136;51.478;-2.610;2023-06-22T03:49:17;19;14;
55276;PMS5003;41136;51.478;-2.610;2023-06-22T03:51:43;18;13;
55276;PMS5003;41136;51.478;-2.610;2023-06-22T03:54:08;19;16;
55276;PMS5003;41136;51.478;-2.610;2023-06-22T03:56:33;15;13;
55276;PMS5003;41136;51.478;-2.610;2023-06-22T03:58:59;17;15;
55276;PMS5003;41136;51.478;-2.610;2023-06-22T04:01:25;17;15;
55276;PMS5003;41136;51.478;-2.610;2023-06-22T04:03:51;17;13;
55276;PMS5003;41136;51.478;-2.610;2023-06-22T04:06:16;15;14;
55276;PMS5003;41136;51.478;-2.610;2023-06-22T04:08:41;18;15;
55276;PMS5003;41136;51.478;-2.610;2023-06-22T04:11:07;20;17;
55276;PMS5003;41136;51.478;-2.610;2023-06-22T04:13:32;14;13;
55276;PMS5003;41136;51.478;-2.610;2023-06-22T04:15:57;19;17;
55276;PMS5003;41136;51.478;-2.610;2023-06-22T04:18:22;19;14;
55276;PMS5003;41136;51.478;-2.610;2023-06-22T04:20:47;20;18;
55276;PMS5003;41136;51.478;-2.610;2023-06-22T04:23:13;19;18;
55276;PMS5003;41136;51.478;-2.610;2023-06-22T04:25:39;19;17;
55276;PMS5003;41136;51.478;-2.610;2023-06-22T04:30:48;18;17;
55276;PMS5003;41136;51.478;-2.610;2023-06-22T04:33:13;21;20;
55276;PMS5003;41136;51.478;-2.610;2023-06-22T04:39:22;24;18;
55276;PMS5003;41136;51.478;-2.610;2023-06-22T04:41:47;19;16;
55276;PMS5003;41136;51.478;-2.610;2023-06-22T04:44:13;22;17;
55276;PMS5003;41136;51.478;-2.610;2023-06-22T04:46:38;22;18;
55276;PMS5003;41136;51.478;-2.610;2023-06-22T04:49:03;16;14;
55276;PMS5003;41136;51.478;-2.610;2023-06-22T04:51:28;15;14;
55276;PMS5003;41136;51.478;-2.610;2023-06-22T04:53:53;14;14;
55276;PMS5003;41136;51.478;-2.610;2023-06-22T04:56:19;13;13;
55276;PMS5003;41136;51.478;-2.610;2023-06-22T04:58:44;19;16;
55276;PMS5003;41136;51.478;-2.610;2023-06-22T05:01:09;20;16;
55276;PMS5003;41136;51.478;-2.610;2023-06-22T05:03:35;17;12;
55276;PMS5003;41136;51.478;-2.610;2023-06-22T05:06:00;20;16;
55276;PMS5003;41136;51.478;-2.610;2023-06-22T05:08:26;19;16;
55276;PMS5003;41136;51.478;-2.610;2023-06-22T05:10:51;16;14;
55276;PMS5003;41136;51.478;-2.610;2023-06-22T05:13:16;13;11;
55276;PMS5003;41136;51.478;-2.610;2023-06-22T05:15:42;17;15;
55276;PMS5003;41136;51.478;-2.610;2023-06-22T05:18:08;21;14;
55276;PMS5003;41136;51.478;-2.610;2023-06-22T05:20:33;15;15;
55276;PMS5003;41136;51.478;-2.610;2023-06-22T05:22:58;18;16;
55276;PMS5003;41136;51.478;-2.610;2023-06-22T05:25:24;12;12;
55276;PMS5003;41136;51.478;-2.610;2023-06-22T05:27:49;13;13;
55276;PMS5003;41136;51.478;-2.610;2023-06-22T05:30:15;17;15;
55276;PMS5003;41136;51.478;-2.610;2023-06-22T05:32:41;12;10;
55276;PMS5003;41136;51.478;-2.610;2023-06-22T05:35:06;17;17;
55276;PMS5003;41136;51.478;-2.610;2023-06-22T05:37:31;14;12;
55276;PMS5003;41136;51.478;-2.610;2023-06-22T05:39:57;17;13;
55276;PMS5003;41136;51.478;-2.610;2023-06-22T05:42:23;16;14;
55276;PMS5003;41136;51.478;-2.610;2023-06-22T05:44:48;12;10;
55276;PMS5003;41136;51.478;-2.610;2023-06-22T05:47:13;13;12;
55276;PMS5003;41136;51.478;-2.610;2023-06-22T05:49:38;18;12;
55276;PMS5003;41136;51.478;-2.610;2023-06-22T05:52:04;14;14;
55276;PMS5003;41136;51.478;-2.610;2023-06-22T05:54:29;13;12;
55276;PMS5003;41136;51.478;-2.610;2023-06-22T05:56:55;20;15;
55276;PMS5003;41136;51.478;-2.610;2023-06-22T05:59:20;14;13;
55276;PMS5003;41136;51.478;-2.610;2023-06-22T06:01:45;15;14;
55276;PMS5003;41136;51.478;-2.610;2023-06-22T06:04:10;16;14;
55276;PMS5003;41136;51.478;-2.610;2023-06-22T06:06:36;11;11;
55276;PMS5003;41136;51.478;-2.610;2023-06-22T06:09:02;16;14;
55276;PMS5003;41136;51.478;-2.610;2023-06-22T06:11:27;12;12;
55276;PMS5003;41136;51.478;-2.610;2023-06-22T06:13:52;13;12;
55276;PMS5003;41136;51.478;-2.610;2023-06-22T06:16:17;13;12;
55276;PMS5003;41136;51.478;-2.610;2023-06-22T06:18:43;11;10;
55276;PMS5003;41136;51.478;-2.610;2023-06-22T06:21:09;14;11;
55276;PMS5003;41136;51.478;-2.610;2023-06-22T06:23:34;16;13;
55276;PMS5003;41136;51.478;-2.610;2023-06-22T06:26:00;11;9;
55276;PMS5003;41136;51.478;-2.610;2023-06-22T06:28:25;10;8;
55276;PMS5003;41136;51.478;-2.610;2023-06-22T06:30:50;15;10;
55276;PMS5003;41136;51.478;-2.610;2023-06-22T06:33:16;14;11;
55276;PMS5003;41136;51.478;-2.610;2023-06-22T06:35:41;20;12;
55276;PMS5003;41136;51.478;-2.610;2023-06-22T06:38:07;15;10;
55276;PMS5003;41136;51.478;-2.610;2023-06-22T06:40:32;11;8;
55276;PMS5003;41136;51.478;-2.610;2023-06-22T06:42:57;9;9;
55276;PMS5003;41136;51.478;-2.610;2023-06-22T06:45:23;14;9;
55276;PMS5003;41136;51.478;-2.610;2023-06-22T06:47:48;8;7;
55276;PMS5003;41136;51.478;-2.610;2023-06-22T06:50:13;8;6;
55276;PMS5003;41136;51.478;-2.610;2023-06-22T06:52:39;8;8;
55276;PMS5003;41136;51.478;-2.610;2023-06-22T06:55:05;9;9;
55276;PMS5003;41136;51.478;-2.610;2023-06-22T06:57:30;12;12;
55276;PMS5003;41136;51.478;-2.610;2023-06-22T06:59:56;6;6;
55276;PMS5003;41136;51.478;-2.610;2023-06-22T07:02:21;7;7;
55276;PMS5003;41136;51.478;-2.610;2023-06-22T07:04:47;8;7;
55276;PMS5003;41136;51.478;-2.610;2023-06-22T07:07:12;7;5;
55276;PMS5003;41136;51.478;-2.610;2023-06-22T07:09:38;8;8;
55276;PMS5003;41136;51.478;-2.610;2023-06-22T07:12:03;6;6;
55276;PMS5003;41136;51.478;-2.610;2023-06-22T07:14:28;7;6;
55276;PMS5003;41136;51.478;-2.610;2023-06-22T07:16:54;5;5;
55276;PMS5003;41136;51.478;-2.610;2023-06-22T07:19:24;7;7;
55276;PMS5003;41136;51.478;-2.610;2023-06-22T07:21:44;10;6;
55276;PMS5003;41136;51.478;-2.610;2023-06-22T07:24:09;7;5;
55276;PMS5003;41136;51.478;-2.610;2023-06-22T07:26:35;6;6;
55276;PMS5003;41136;51.478;-2.610;2023-06-22T07:29:00;7;7;
55276;PMS5003;41136;51.478;-2.610;2023-06-22T07:31:25;6;6;
55276;PMS5003;41136;51.478;-2.610;2023-06-22T07:33:51;5;5;
55276;PMS5003;41136;51.478;-2.610;2023-06-22T07:36:16;6;5;
55276;PMS5003;41136;51.478;-2.610;2023-06-22T07:38:41;3;3;
55276;PMS5003;41136;51.478;-2.610;2023-06-22T07:41:06;8;6;
55276;PMS5003;41136;51.478;-2.610;2023-06-22T07:43:32;7;7;
55276;PMS5003;41136;51.478;-2.610;2023-06-22T07:45:57;8;7;
55276;PMS5003;41136;51.478;-2.610;2023-06-22T07:48:23;6;6;
55276;PMS5003;41136;51.478;-2.610;2023-06-22T07:50:48;9;6;
55276;PMS5003;41136;51.478;-2.610;2023-06-22T07:53:13;8;7;
55276;PMS5003;41136;51.478;-2.610;2023-06-22T07:55:39;7;7;
55276;PMS5003;41136;51.478;-2.610;2023-06-22T07:58:04;6;5;
55276;PMS5003;41136;51.478;-2.610;2023-06-22T08:00:29;12;7;
55276;PMS5003;41136;51.478;-2.610;2023-06-22T08:02:54;10;8;
55276;PMS5003;41136;51.478;-2.610;2023-06-22T08:05:19;7;7;
55276;PMS5003;41136;51.478;-2.610;2023-06-22T08:07:45;8;8;
55276;PMS5003;41136;51.478;-2.610;2023-06-22T08:10:10;8;8;
55276;PMS5003;41136;51.478;-2.610;2023-06-22T08:12:35;12;11;
55276;PMS5003;41136;51.478;-2.610;2023-06-22T08:15:01;9;9;
55276;PMS5003;41136;51.478;-2.610;2023-06-22T08:17:26;10;8;
55276;PMS5003;41136;51.478;-2.610;2023-06-22T08:19:51;8;8;
55276;PMS5003;41136;51.478;-2.610;2023-06-22T08:22:16;13;11;
55276;PMS5003;41136;51.478;-2.610;2023-06-22T08:24:42;12;10;
55276;PMS5003;41136;51.478;-2.610;2023-06-22T08:27:07;13;12;
55276;PMS5003;41136;51.478;-2.610;2023-06-22T08:29:32;14;10;
55276;PMS5003;41136;51.478;-2.610;2023-06-22T08:31:58;11;11;
55276;PMS5003;41136;51.478;-2.610;2023-06-22T08:34:23;15;13;
55276;PMS5003;41136;51.478;-2.610;2023-06-22T08:36:48;16;13;
55276;PMS5003;41136;51.478;-2.610;2023-06-22T08:39:14;12;12;
55276;PMS5003;41136;51.478;-2.610;2023-06-22T08:41:40;19;18;
55276;PMS5003;41136;51.478;-2.610;2023-06-22T08:44:05;12;12;
55276;PMS5003;41136;51.478;-2.610;2023-06-22T08:46:30;12;11;
55276;PMS5003;41136;51.478;-2.610;2023-06-22T08:48:56;10;9;
55276;PMS5003;41136;51.478;-2.610;2023-06-22T08:51:21;14;11;
55276;PMS5003;41136;51.478;-2.610;2023-06-22T08:53:47;10;10;
55276;PMS5003;41136;51.478;-2.610;2023-06-22T08:56:12;13;12;
55276;PMS5003;41136;51.478;-2.610;2023-06-22T08:58:38;17;17;
55276;PMS5003;41136;51.478;-2.610;2023-06-22T09:01:04;9;8;
55276;PMS5003;41136;51.478;-2.610;2023-06-22T09:03:29;7;7;
55276;PMS5003;41136;51.478;-2.610;2023-06-22T09:05:55;7;7;
55276;PMS5003;41136;51.478;-2.610;2023-06-22T09:08:20;7;7;
55276;PMS5003;41136;51.478;-2.610;2023-06-22T09:10:45;8;7;
55276;PMS5003;41136;51.478;-2.610;2023-06-22T09:13:10;6;6;
55276;PMS5003;41136;51.478;-2.610;2023-06-22T09:15:36;7;7;
55276;PMS5003;41136;51.478;-2.610;2023-06-22T09:18:01;9;7;
55276;PMS5003;41136;51.478;-2.610;2023-06-22T09:20:26;12;8;
55276;PMS5003;41136;51.478;-2.610;2023-06-22T09:22:52;9;9;
55276;PMS5003;41136;51.478;-2.610;2023-06-22T09:25:17;7;6;
55276;PMS5003;41136;51.478;-2.610;2023-06-22T09:27:42;8;8;
55276;PMS5003;41136;51.478;-2.610;2023-06-22T09:30:08;10;10;
55276;PMS5003;41136;51.478;-2.610;2023-06-22T09:32:33;10;8;
55276;PMS5003;41136;51.478;-2.610;2023-06-22T09:34:58;5;5;
55276;PMS5003;41136;51.478;-2.610;2023-06-22T09:37:23;7;7;
55276;PMS5003;41136;51.478;-2.610;2023-06-22T09:39:48;4;4;
55276;PMS5003;41136;51.478;-2.610;2023-06-22T09:42:14;7;6;
55276;PMS5003;41136;51.478;-2.610;2023-06-22T09:44:39;10;7;
55276;PMS5003;41136;51.478;-2.610;2023-06-22T09:47:05;8;8;
55276;PMS5003;41136;51.478;-2.610;2023-06-22T09:49:30;4;4;
55276;PMS5003;41136;51.478;-2.610;2023-06-22T09:51:55;4;4;
55276;PMS5003;41136;51.478;-2.610;2023-06-22T09:54:20;6;6;
55276;PMS5003;41136;51.478;-2.610;2023-06-22T09:56:46;6;6;
55276;PMS5003;41136;51.478;-2.610;2023-06-22T09:59:11;8;8;
55276;PMS5003;41136;51.478;-2.610;2023-06-22T10:01:36;32;29;
55276;PMS5003;41136;51.478;-2.610;2023-06-22T10:04:02;6;6;
55276;PMS5003;41136;51.478;-2.610;2023-06-22T10:06:27;6;6;
55276;PMS5003;41136;51.478;-2.610;2023-06-22T10:08:52;9;9;
55276;PMS5003;41136;51.478;-2.610;2023-06-22T10:11:17;4;4;
55276;PMS5003;41136;51.478;-2.610;2023-06-22T10:13:43;6;6;
55276;PMS5003;41136;51.478;-2.610;2023-06-22T10:16:08;8;7;
55276;PMS5003;41136;51.478;-2.610;2023-06-22T10:18:33;6;6;
55276;PMS5003;41136;51.478;-2.610;2023-06-22T10:20:59;8;6;
55276;PMS5003;41136;51.478;-2.610;2023-06-22T10:23:24;5;5;
55276;PMS5003;41136;51.478;-2.610;2023-06-22T10:25:49;10;9;
55276;PMS5003;41136;51.478;-2.610;2023-06-22T10:28:15;7;7;
55276;PMS5003;41136;51.478;-2.610;2023-06-22T10:30:40;6;6;
55276;PMS5003;41136;51.478;-2.610;2023-06-22T10:33:05;11;8;
55276;PMS5003;41136;51.478;-2.610;2023-06-22T10:35:31;13;7;
55276;PMS5003;41136;51.478;-2.610;2023-06-22T10:37:56;6;6;
55276;PMS5003;41136;51.478;-2.610;2023-06-22T10:40:21;4;4;
55276;PMS5003;41136;51.478;-2.610;2023-06-22T10:42:46;4;4;
55276;PMS5003;41136;51.478;-2.610;2023-06-22T10:45:12;7;7;
55276;PMS5003;41136;51.478;-2.610;2023-06-22T10:47:37;7;7;
55276;PMS5003;41136;51.478;-2.610;2023-06-22T10:50:02;6;6;
55276;PMS5003;41136;51.478;-2.610;2023-06-22T10:52:27;5;4;
55276;PMS5003;41136;51.478;-2.610;2023-06-22T10:54:53;6;5;
55276;PMS5003;41136;51.478;-2.610;2023-06-22T10:57:18;6;6;
55276;PMS5003;41136;51.478;-2.610;2023-06-22T10:59:43;7;7;
55276;PMS5003;41136;51.478;-2.610;2023-06-22T11:02:09;8;7;
55276;PMS5003;41136;51.478;-2.610;2023-06-22T11:04:34;5;5;
55276;PMS5003;41136;51.478;-2.610;2023-06-22T11:06:59;7;5;
55276;PMS5003;41136;51.478;-2.610;2023-06-22T11:09:25;4;4;
55276;PMS5003;41136;51.478;-2.610;2023-06-22T11:11:51;6;5;
55276;PMS5003;41136;51.478;-2.610;2023-06-22T11:14:15;5;5;
55276;PMS5003;41136;51.478;-2.610;2023-06-22T11:16:40;8;6;
55276;PMS5003;41136;51.478;-2.610;2023-06-22T11:19:06;7;7;
55276;PMS5003;41136;51.478;-2.610;2023-06-22T11:21:31;7;6;
55276;PMS5003;41136;51.478;-2.610;2023-06-22T11:23:56;6;6;
55276;PMS5003;41136;51.478;-2.610;2023-06-22T11:26:21;6;5;
55276;PMS5003;41136;51.478;-2.610;2023-06-22T11:28:46;6;6;
55276;PMS5003;41136;51.478;-2.610;2023-06-22T11:31:12;9;9;
55276;PMS5003;41136;51.478;-2.610;2023-06-22T11:33:38;4;4;
55276;PMS5003;41136;51.478;-2.610;2023-06-22T11:36:03;7;7;
55276;PMS5003;41136;51.478;-2.610;2023-06-22T11:38:28;7;5;
55276;PMS5003;41136;51.478;-2.610;2023-06-22T11:40:53;9;8;
55276;PMS5003;41136;51.478;-2.610;2023-06-22T11:43:19;4;4;
55276;PMS5003;41136;51.478;-2.610;2023-06-22T11:45:44;6;5;
55276;PMS5003;41136;51.478;-2.610;2023-06-22T11:48:09;5;5;
55276;PMS5003;41136;51.478;-2.610;2023-06-22T11:50:34;6;6;
55276;PMS5003;41136;51.478;-2.610;2023-06-22T11:52:59;6;5;
55276;PMS5003;41136;51.478;-2.610;2023-06-22T11:55:25;4;4;
55276;PMS5003;41136;51.478;-2.610;2023-06-22T11:57:53;5;5;
55276;PMS5003;41136;51.478;-2.610;2023-06-22T12:00:15;6;6;
55276;PMS5003;41136;51.478;-2.610;2023-06-22T12:02:40;5;5;
55276;PMS5003;41136;51.478;-2.610;2023-06-22T12:05:06;6;5;
55276;PMS5003;41136;51.478;-2.610;2023-06-22T12:07:31;8;7;
55276;PMS5003;41136;51.478;-2.610;2023-06-22T12:09:56;5;5;
55276;PMS5003;41136;51.478;-2.610;2023-06-22T12:12:21;8;6;
55276;PMS5003;41136;51.478;-2.610;2023-06-22T12:14:46;4;4;
55276;PMS5003;41136;51.478;-2.610;2023-06-22T12:17:12;5;3;
55276;PMS5003;41136;51.478;-2.610;2023-06-22T12:19:37;5;5;
55276;PMS5003;41136;51.478;-2.610;2023-06-22T12:22:03;7;7;
55276;PMS5003;41136;51.478;-2.610;2023-06-22T12:24:27;7;6;
55276;PMS5003;41136;51.478;-2.610;2023-06-22T12:26:53;7;7;
55276;PMS5003;41136;51.478;-2.610;2023-06-22T12:29:18;5;4;
55276;PMS5003;41136;51.478;-2.610;2023-06-22T12:31:43;7;7;
55276;PMS5003;41136;51.478;-2.610;2023-06-22T12:34:08;7;7;
55276;PMS5003;41136;51.478;-2.610;2023-06-22T12:36:34;9;8;
55276;PMS5003;41136;51.478;-2.610;2023-06-22T12:39:00;6;6;
55276;PMS5003;41136;51.478;-2.610;2023-06-22T12:41:24;6;5;
55276;PMS5003;41136;51.478;-2.610;2023-06-22T12:43:49;10;6;
55276;PMS5003;41136;51.478;-2.610;2023-06-22T12:46:15;6;5;
55276;PMS5003;41136;51.478;-2.610;2023-06-22T12:48:40;7;7;
55276;PMS5003;41136;51.478;-2.610;2023-06-22T12:51:05;6;6;
55276;PMS5003;41136;51.478;-2.610;2023-06-22T12:53:31;7;7;
55276;PMS5003;41136;51.478;-2.610;2023-06-22T12:55:56;5;5;
55276;PMS5003;41136;51.478;-2.610;2023-06-22T12:58:21;5;5;
55276;PMS5003;41136;51.478;-2.610;2023-06-22T13:00:46;6;5;
55276;PMS5003;41136;51.478;-2.610;2023-06-22T13:03:12;6;6;
55276;PMS5003;41136;51.478;-2.610;2023-06-22T13:05:37;8;6;
55276;PMS5003;41136;51.478;-2.610;2023-06-22T13:08:02;8;7;
55276;PMS5003;41136;51.478;-2.610;2023-06-22T13:10:27;7;7;
55276;PMS5003;41136;51.478;-2.610;2023-06-22T13:12:52;5;5;
55276;PMS5003;41136;51.478;-2.610;2023-06-22T13:15:18;7;7;
55276;PMS5003;41136;51.478;-2.610;2023-06-22T13:17:43;8;6;
55276;PMS5003;41136;51.478;-2.610;2023-06-22T13:20:08;5;5;
55276;PMS5003;41136;51.478;-2.610;2023-06-22T13:22:34;7;7;
55276;PMS5003;41136;51.478;-2.610;2023-06-22T13:24:59;8;7;
55276;PMS5003;41136;51.478;-2.610;2023-06-22T13:27:24;7;7;
55276;PMS5003;41136;51.478;-2.610;2023-06-22T13:29:50;9;6;
55276;PMS5003;41136;51.478;-2.610;2023-06-22T13:32:15;4;4;
55276;PMS5003;41136;51.478;-2.610;2023-06-22T13:34:40;8;7;
55276;PMS5003;41136;51.478;-2.610;2023-06-22T13:37:05;8;7;
55276;PMS5003;41136;51.478;-2.610;2023-06-22T13:39:30;7;6;
55276;PMS5003;41136;51.478;-2.610;2023-06-22T13:41:56;6;5;
55276;PMS5003;41136;51.478;-2.610;2023-06-22T13:44:21;6;6;
55276;PMS5003;41136;51.478;-2.610;2023-06-22T13:46:46;6;6;
55276;PMS5003;41136;51.478;-2.610;2023-06-22T13:49:11;4;3;
55276;PMS5003;41136;51.478;-2.610;2023-06-22T13:51:37;7;6;
55276;PMS5003;41136;51.478;-2.610;2023-06-22T13:54:02;5;5;
55276;PMS5003;41136;51.478;-2.610;2023-06-22T13:56:27;5;4;
55276;PMS5003;41136;51.478;-2.610;2023-06-22T13:58:52;6;5;
55276;PMS5003;41136;51.478;-2.610;2023-06-22T14:01:17;4;4;
55276;PMS5003;41136;51.478;-2.610;2023-06-22T14:03:43;5;5;
55276;PMS5003;41136;51.478;-2.610;2023-06-22T14:06:08;5;5;
55276;PMS5003;41136;51.478;-2.610;2023-06-22T14:08:33;5;5;
55276;PMS5003;41136;51.478;-2.610;2023-06-22T14:10:58;6;5;
55276;PMS5003;41136;51.478;-2.610;2023-06-22T14:13:24;6;6;
55276;PMS5003;41136;51.478;-2.610;2023-06-22T14:15:49;4;4;
55276;PMS5003;41136;51.478;-2.610;2023-06-22T14:18:14;6;5;
55276;PMS5003;41136;51.478;-2.610;2023-06-22T14:20:39;6;6;
55276;PMS5003;41136;51.478;-2.610;2023-06-22T14:23:05;7;7;
55276;PMS5003;41136;51.478;-2.610;2023-06-22T14:25:30;4;4;
55276;PMS5003;41136;51.478;-2.610;2023-06-22T14:27:55;5;5;
55276;PMS5003;41136;51.478;-2.610;2023-06-22T14:30:20;3;3;
55276;PMS5003;41136;51.478;-2.610;2023-06-22T14:32:45;5;5;
55276;PMS5003;41136;51.478;-2.610;2023-06-22T14:35:11;4;4;
55276;PMS5003;41136;51.478;-2.610;2023-06-22T14:37:36;6;6;
55276;PMS5003;41136;51.478;-2.610;2023-06-22T14:40:01;7;6;
55276;PMS5003;41136;51.478;-2.610;2023-06-22T14:42:26;6;6;
55276;PMS5003;41136;51.478;-2.610;2023-06-22T14:44:52;4;4;
55276;PMS5003;41136;51.478;-2.610;2023-06-22T14:47:17;6;6;
55276;PMS5003;41136;51.478;-2.610;2023-06-22T14:49:42;5;5;
55276;PMS5003;41136;51.478;-2.610;2023-06-22T14:52:07;5;4;
55276;PMS5003;41136;51.478;-2.610;2023-06-22T14:54:33;5;5;
55276;PMS5003;41136;51.478;-2.610;2023-06-22T14:56:58;4;4;
55276;PMS5003;41136;51.478;-2.610;2023-06-22T14:59:23;3;3;
55276;PMS5003;41136;51.478;-2.610;2023-06-22T15:01:48;6;6;
55276;PMS5003;41136;51.478;-2.610;2023-06-22T15:04:13;5;5;
55276;PMS5003;41136;51.478;-2.610;2023-06-22T15:06:39;4;4;
55276;PMS5003;41136;51.478;-2.610;2023-06-22T15:09:04;3;3;
55276;PMS5003;41136;51.478;-2.610;2023-06-22T15:11:29;3;2;
55276;PMS5003;41136;51.478;-2.610;2023-06-22T15:13:57;3;3;
55276;PMS5003;41136;51.478;-2.610;2023-06-22T15:16:20;5;5;
55276;PMS5003;41136;51.478;-2.610;2023-06-22T15:18:45;5;4;
55276;PMS5003;41136;51.478;-2.610;2023-06-22T15:21:10;3;3;
55276;PMS5003;41136;51.478;-2.610;2023-06-22T15:23:35;4;3;
55276;PMS5003;41136;51.478;-2.610;2023-06-22T15:26:01;4;4;
55276;PMS5003;41136;51.478;-2.610;2023-06-22T15:28:26;4;4;
55276;PMS5003;41136;51.478;-2.610;2023-06-22T15:30:51;4;3;
55276;PMS5003;41136;51.478;-2.610;2023-06-22T15:33:16;4;4;
55276;PMS5003;41136;51.478;-2.610;2023-06-22T15:35:41;2;2;
55276;PMS5003;41136;51.478;-2.610;2023-06-22T15:38:06;3;3;
55276;PMS5003;41136;51.478;-2.610;2023-06-22T15:40:32;3;3;
55276;PMS5003;41136;51.478;-2.610;2023-06-22T15:42:57;4;4;
55276;PMS5003;41136;51.478;-2.610;2023-06-22T15:45:22;6;4;
55276;PMS5003;41136;51.478;-2.610;2023-06-22T15:47:47;3;3;
55276;PMS5003;41136;51.478;-2.610;2023-06-22T15:50:13;3;2;
55276;PMS5003;41136;51.478;-2.610;2023-06-22T15:52:39;3;3;
55276;PMS5003;41136;51.478;-2.610;2023-06-22T15:55:03;4;3;
55276;PMS5003;41136;51.478;-2.610;2023-06-22T15:57:28;7;6;
55276;PMS5003;41136;51.478;-2.610;2023-06-22T16:11:43;4;4;
55276;PMS5003;41136;51.478;-2.610;2023-06-22T16:14:07;4;4;
55276;PMS5003;41136;51.478;-2.610;2023-06-22T16:16:32;5;5;
55276;PMS5003;41136;51.478;-2.610;2023-06-22T16:18:57;4;4;
55276;PMS5003;41136;51.478;-2.610;2023-06-22T16:21:22;4;4;
55276;PMS5003;41136;51.478;-2.610;2023-06-22T16:23:48;5;5;
55276;PMS5003;41136;51.478;-2.610;2023-06-22T16:26:13;5;5;
55276;PMS5003;41136;51.478;-2.610;2023-06-22T16:28:39;5;5;